createdAt,value
2023-04-12T00:00:11.040Z,66.44
2023-04-12T00:02:41.934Z,66.67
2023-04-12T00:05:13.418Z,66.64
2023-04-12T00:07:42.449Z,66.73
2023-04-12T00:10:10.671Z,66.80
2023-04-12T00:12:40.382Z,66.85
2023-04-12T00:15:09.383Z,66.93
2023-04-12T00:17:37.446Z,67.01
2023-04-12T00:20:09.229Z,67.14
2023-04-12T00:22:37.240Z,67.12
2023-04-12T00:25:06.209Z,67.40
2023-04-12T00:27:34.125Z,67.40
2023-04-12T00:30:05.683Z,67.46
2023-04-12T00:32:33.737Z,67.61
2023-04-12T00:35:01.745Z,67.92
2023-04-12T00:37:29.904Z,68.00
2023-04-12T00:39:57.685Z,67.93
2023-04-12T00:42:25.904Z,68.24
2023-04-12T00:44:53.882Z,68.22
2023-04-12T00:47:22.231Z,68.30
2023-04-12T00:49:50.098Z,68.46
2023-04-12T00:52:17.845Z,68.43
2023-04-12T00:54:46.081Z,68.51
2023-04-12T00:57:14.057Z,68.60
2023-04-12T00:59:43.288Z,68.69
2023-04-12T01:02:12.576Z,68.78
2023-04-12T01:04:42.359Z,69.88
2023-04-12T01:07:18.596Z,69.89
2023-04-12T01:10:08.233Z,70.09
2023-04-12T01:13:06.757Z,70.27
2023-04-12T01:15:39.741Z,70.32
2023-04-12T01:18:19.199Z,70.24
2023-04-12T01:20:57.287Z,70.13
2023-04-12T01:24:10.954Z,70.05
2023-04-12T01:26:47.588Z,69.79
2023-04-12T01:29:18.635Z,69.55
2023-04-12T01:31:56.700Z,69.48
2023-04-12T01:34:29.806Z,69.38
2023-04-12T01:37:01.404Z,69.32
2023-04-12T01:39:33.996Z,69.24
2023-04-12T01:42:03.335Z,69.19
2023-04-12T01:44:31.251Z,69.25
2023-04-12T01:46:59.420Z,69.20
2023-04-12T01:49:32.713Z,69.21
2023-04-12T01:52:18.384Z,69.26
2023-04-12T01:54:50.849Z,69.25
2023-04-12T01:57:20.070Z,69.19
2023-04-12T01:59:49.840Z,69.15
2023-04-12T02:02:18.833Z,69.12
2023-04-12T02:04:47.937Z,69.30
2023-04-12T02:07:18.426Z,69.36
2023-04-12T02:09:46.442Z,69.41
2023-04-12T02:12:14.696Z,69.53
2023-04-12T02:14:42.701Z,69.55
2023-04-12T02:17:12.681Z,69.56
2023-04-12T02:19:41.157Z,69.63
2023-04-12T02:22:09.815Z,69.72
2023-04-12T02:24:37.618Z,69.83
2023-04-12T02:27:05.610Z,69.92
2023-04-12T02:29:33.632Z,70.14
2023-04-12T02:32:01.602Z,70.98
2023-04-12T02:34:31.906Z,71.27
2023-04-12T02:37:01.769Z,71.59
2023-04-12T02:39:31.716Z,71.80
2023-04-12T02:42:01.093Z,71.79
2023-04-12T02:44:30.726Z,71.83
2023-04-12T02:47:12.391Z,71.86
2023-04-12T02:49:41.405Z,72.13
2023-04-12T02:52:11.143Z,72.08
2023-04-12T02:54:41.387Z,72.40
2023-04-12T02:57:11.258Z,72.38
2023-04-12T02:59:40.891Z,72.75
2023-04-12T03:02:16.283Z,72.55
2023-04-12T03:04:46.188Z,73.16
2023-04-12T03:07:18.650Z,72.80
2023-04-12T03:09:51.233Z,72.99
2023-04-12T03:12:20.388Z,73.11
2023-04-12T03:14:50.705Z,73.34
2023-04-12T03:17:19.245Z,73.28
2023-04-12T03:19:49.361Z,73.34
2023-04-12T03:22:17.814Z,73.38
2023-04-12T03:24:47.053Z,73.51
2023-04-12T03:27:15.877Z,73.68
2023-04-12T03:29:43.853Z,73.79
2023-04-12T03:32:12.099Z,73.78
2023-04-12T03:34:40.724Z,73.84
2023-04-12T03:37:10.879Z,73.82
2023-04-12T03:39:44.828Z,73.96
2023-04-12T03:42:29.531Z,74.02
2023-04-12T03:44:45.475Z,74.12
2023-04-12T03:47:14.283Z,74.28
2023-04-12T03:49:42.288Z,74.51
2023-04-12T03:52:12.079Z,74.33
2023-04-12T03:54:40.907Z,74.39
2023-04-12T03:57:10.704Z,74.47
2023-04-12T03:59:43.108Z,74.88
2023-04-12T04:02:11.697Z,74.79
2023-04-12T04:04:42.620Z,74.93
2023-04-12T04:07:12.862Z,75.13
2023-04-12T04:09:42.652Z,75.30
2023-04-12T04:12:11.998Z,75.34
2023-04-12T04:14:44.372Z,75.39
2023-04-12T04:17:15.011Z,75.53
2023-04-12T04:19:43.698Z,75.60
2023-04-12T04:22:12.220Z,75.69
2023-04-12T04:24:42.389Z,75.59
2023-04-12T04:27:16.681Z,75.73
2023-04-12T04:30:03.959Z,75.73
2023-04-12T04:32:37.438Z,75.73
2023-04-12T04:35:09.539Z,75.62
2023-04-12T04:37:41.920Z,75.60
2023-04-12T04:40:14.064Z,75.73
2023-04-12T04:42:42.753Z,75.65
2023-04-12T04:45:14.480Z,75.54
2023-04-12T04:47:44.341Z,75.58
2023-04-12T04:50:12.250Z,75.55
2023-04-12T04:52:40.550Z,75.56
2023-04-12T04:55:11.539Z,75.70
2023-04-12T04:57:41.666Z,75.76
2023-04-12T05:00:15.897Z,75.75
2023-04-12T05:02:45.883Z,75.79
2023-04-12T05:05:15.507Z,75.98
2023-04-12T05:07:43.994Z,75.84
2023-04-12T05:10:12.020Z,75.97
2023-04-12T05:12:41.342Z,75.95
2023-04-12T05:15:12.253Z,75.99
2023-04-12T05:17:41.378Z,75.89
2023-04-12T05:20:13.141Z,76.04
2023-04-12T05:22:40.990Z,76.10
2023-04-12T05:25:10.087Z,76.08
2023-04-12T05:27:39.629Z,76.37
2023-04-12T05:30:09.161Z,76.51
2023-04-12T05:32:36.797Z,76.46
2023-04-12T05:35:05.658Z,76.51
2023-04-12T05:37:34.918Z,76.48
2023-04-12T05:40:04.731Z,76.58
2023-04-12T05:42:32.643Z,76.67
2023-04-12T05:45:00.864Z,76.75
2023-04-12T05:47:28.845Z,76.79
2023-04-12T05:49:56.842Z,76.64
2023-04-12T05:52:24.589Z,76.69
2023-04-12T05:54:53.546Z,76.72
2023-04-12T05:57:22.261Z,76.85
2023-04-12T05:59:50.270Z,76.99
2023-04-12T06:02:18.666Z,76.85
2023-04-12T06:04:50.949Z,77.14
2023-04-12T06:07:18.851Z,77.25
2023-04-12T06:09:46.912Z,77.38
2023-04-12T06:12:16.941Z,77.06
2023-04-12T06:14:45.536Z,77.17
2023-04-12T06:17:13.690Z,77.29
2023-04-12T06:19:45.196Z,77.28
2023-04-12T06:22:13.359Z,77.24
2023-04-12T06:24:42.176Z,77.61
2023-04-12T06:27:12.548Z,77.52
2023-04-12T06:29:41.374Z,77.52
2023-04-12T06:32:09.324Z,77.55
2023-04-12T06:34:42.225Z,77.34
2023-04-12T06:37:13.873Z,76.99
2023-04-12T06:39:44.793Z,76.91
2023-04-12T06:42:17.731Z,77.04
2023-04-12T06:44:46.085Z,76.86
2023-04-12T06:47:15.513Z,77.16
2023-04-12T06:49:43.435Z,77.71
2023-04-12T06:52:11.417Z,77.25
2023-04-12T06:54:47.547Z,76.76
2023-04-12T06:57:34.204Z,76.44
2023-04-12T07:00:05.147Z,76.10
2023-04-12T07:02:38.650Z,75.47
2023-04-12T07:05:09.352Z,75.08
2023-04-12T07:07:41.413Z,74.85
2023-04-12T07:10:15.850Z,74.36
2023-04-12T07:12:45.985Z,74.30
2023-04-12T07:15:15.209Z,74.76
2023-04-12T07:17:47.038Z,74.79
2023-04-12T07:20:18.106Z,75.04
2023-04-12T07:22:48.265Z,74.99
2023-04-12T07:25:16.716Z,75.06
2023-04-12T07:27:45.138Z,75.16
2023-04-12T07:30:18.698Z,75.20
2023-04-12T07:32:47.278Z,74.92
2023-04-12T07:35:17.109Z,74.67
2023-04-12T07:37:46.680Z,74.75
2023-04-12T07:40:16.728Z,74.56
2023-04-12T07:42:45.991Z,74.43
2023-04-12T07:45:24.668Z,74.78
2023-04-12T07:50:56.030Z,75.34
2023-04-12T07:53:29.098Z,75.45
2023-04-12T07:56:02.737Z,75.63
2023-04-12T07:58:49.962Z,76.03
2023-04-12T08:01:27.230Z,75.86
2023-04-12T08:04:03.613Z,76.21
2023-04-12T08:06:38.383Z,76.86
2023-04-12T08:09:11.099Z,76.22
2023-04-12T08:11:53.165Z,74.61
2023-04-12T08:14:21.281Z,73.65
2023-04-12T08:16:49.185Z,72.79
2023-04-12T08:19:19.901Z,71.30
2023-04-12T08:21:47.999Z,71.26
2023-04-12T08:24:16.277Z,70.80
2023-04-12T08:26:44.222Z,69.76
2023-04-12T08:29:12.516Z,68.92
2023-04-12T08:31:40.861Z,69.61
2023-04-12T08:34:08.892Z,69.80
2023-04-12T08:36:36.840Z,69.38
2023-04-12T08:39:05.293Z,68.95
2023-04-12T08:41:37.576Z,68.67
2023-04-12T08:44:05.849Z,68.64
2023-04-12T08:46:37.712Z,68.04
2023-04-12T08:49:05.926Z,67.53
2023-04-12T08:51:36.323Z,68.12
2023-04-12T08:54:05.675Z,68.36
2023-04-12T08:56:33.644Z,68.39
2023-04-12T08:59:02.555Z,68.64
2023-04-12T09:01:30.254Z,68.46
2023-04-12T09:03:58.440Z,68.11
2023-04-12T09:06:26.993Z,67.93
2023-04-12T09:08:56.921Z,67.94
2023-04-12T09:11:27.731Z,67.40
2023-04-12T09:13:57.846Z,67.42
2023-04-12T09:16:41.236Z,67.87
2023-04-12T09:19:09.757Z,67.86
2023-04-12T09:21:41.269Z,67.33
2023-04-12T09:24:14.628Z,67.37
2023-04-12T09:26:43.983Z,67.38
2023-04-12T09:29:24.993Z,66.76
2023-04-12T09:32:06.540Z,66.67
2023-04-12T09:34:36.523Z,66.32
2023-04-12T09:37:17.599Z,66.49
2023-04-12T09:39:45.502Z,66.39
2023-04-12T09:42:32.493Z,66.72
2023-04-12T09:44:47.904Z,65.87
2023-04-12T09:47:16.063Z,66.00
2023-04-12T09:49:44.954Z,66.56
2023-04-12T09:52:14.511Z,65.29
2023-04-12T09:54:51.120Z,65.45
2023-04-12T09:57:22.786Z,63.88
2023-04-12T09:59:51.879Z,63.92
2023-04-12T10:02:25.696Z,63.57
2023-04-12T10:04:55.204Z,64.05
2023-04-12T10:07:24.178Z,63.06
2023-04-12T10:09:52.787Z,63.45
2023-04-12T10:12:21.010Z,63.55
2023-04-12T10:14:52.505Z,62.44
2023-04-12T10:17:22.708Z,62.71
2023-04-12T10:19:51.211Z,63.27
2023-04-12T10:22:24.325Z,62.28
2023-04-12T10:24:52.232Z,62.10
2023-04-12T10:27:27.776Z,61.75
2023-04-12T10:30:01.416Z,61.99
2023-04-12T10:32:29.798Z,61.53
2023-04-12T10:35:00.270Z,61.85
2023-04-12T10:38:04.162Z,62.14
2023-04-12T10:40:33.920Z,61.67
2023-04-12T10:43:24.828Z,62.01
2023-04-12T10:45:53.337Z,61.79
2023-04-12T10:48:37.866Z,62.60
2023-04-12T10:51:28.888Z,62.34
2023-04-12T10:54:17.478Z,62.82
2023-04-12T10:56:48.716Z,62.32
2023-04-12T10:59:20.724Z,61.92
2023-04-12T11:02:11.740Z,61.53
2023-04-12T11:05:11.315Z,62.04
2023-04-12T11:08:00.341Z,61.82
2023-04-12T11:10:38.783Z,61.67
2023-04-12T11:13:09.401Z,61.75
2023-04-12T11:15:40.232Z,62.82
2023-04-12T11:18:10.622Z,62.94
2023-04-12T11:20:40.736Z,63.12
2023-04-12T11:23:11.270Z,62.56
2023-04-12T11:25:38.939Z,63.01
2023-04-12T11:28:17.314Z,63.34
2023-04-12T11:30:36.578Z,63.18
2023-04-12T11:33:04.923Z,63.26
2023-04-12T11:35:33.026Z,63.42
2023-04-12T11:38:02.048Z,63.74
2023-04-12T11:40:31.229Z,63.84
2023-04-12T11:43:00.600Z,64.06
2023-04-12T11:45:30.851Z,64.16
2023-04-12T11:47:59.303Z,64.04
2023-04-12T11:50:31.857Z,64.13
2023-04-12T11:53:22.111Z,63.85
2023-04-12T11:55:51.324Z,63.98
2023-04-12T11:58:28.200Z,64.23
2023-04-12T12:00:59.997Z,64.64
2023-04-12T12:03:28.362Z,65.07
2023-04-12T12:05:57.624Z,65.41
2023-04-12T12:08:27.427Z,65.59
2023-04-12T12:11:06.435Z,65.72
2023-04-12T12:13:25.649Z,65.76
2023-04-12T12:15:53.954Z,65.78
2023-04-12T12:18:28.731Z,65.21
2023-04-12T12:20:56.872Z,64.70
2023-04-12T12:23:32.303Z,65.19
2023-04-12T12:26:17.836Z,65.27
2023-04-12T12:28:38.389Z,64.96
2023-04-12T12:31:10.188Z,64.93
2023-04-12T12:33:47.353Z,64.35
2023-04-12T12:36:20.451Z,64.35
2023-04-12T12:38:51.583Z,64.45
2023-04-12T12:41:22.508Z,64.59
2023-04-12T12:43:52.497Z,64.96
2023-04-12T12:46:20.986Z,65.26
2023-04-12T12:48:48.870Z,65.46
2023-04-12T12:51:17.476Z,65.28
2023-04-12T12:53:46.047Z,65.16
2023-04-12T12:56:16.041Z,65.23
2023-04-12T12:58:44.157Z,64.98
2023-04-12T13:01:12.300Z,65.08
2023-04-12T13:03:40.239Z,65.13
2023-04-12T13:06:09.079Z,65.53
2023-04-12T13:08:37.630Z,65.20
2023-04-12T13:11:06.251Z,65.39
2023-04-12T13:13:34.083Z,64.38
2023-04-12T13:16:12.778Z,64.19
2023-04-12T13:18:40.949Z,64.18
2023-04-12T13:21:08.840Z,64.43
2023-04-12T13:23:36.968Z,63.65
2023-04-12T13:26:05.553Z,63.78
2023-04-12T13:28:33.396Z,63.59
2023-04-12T13:31:04.603Z,63.43
2023-04-12T13:33:40.195Z,63.72
2023-04-12T13:36:08.512Z,63.71
2023-04-12T13:38:36.444Z,63.71
2023-04-12T13:41:07.127Z,63.64
2023-04-12T13:43:35.069Z,63.05
2023-04-12T13:46:03.158Z,62.08
2023-04-12T13:48:31.132Z,61.51
2023-04-12T13:50:59.352Z,61.75
2023-04-12T13:53:27.322Z,62.46
2023-04-12T13:55:55.354Z,62.38
2023-04-12T13:58:24.927Z,62.74
2023-04-12T14:00:54.749Z,62.97
2023-04-12T14:03:23.102Z,63.22
2023-04-12T14:05:51.342Z,62.38
2023-04-12T14:08:19.263Z,62.73
2023-04-12T14:10:47.291Z,62.44
2023-04-12T14:13:15.305Z,62.38
2023-04-12T14:15:42.935Z,62.47
2023-04-12T14:18:11.187Z,62.61
2023-04-12T14:20:39.333Z,62.96
2023-04-12T14:23:08.128Z,62.55
2023-04-12T14:25:39.196Z,62.41
2023-04-12T14:28:07.156Z,62.34
2023-04-12T14:30:34.944Z,62.34
2023-04-12T14:33:02.771Z,62.19
2023-04-12T14:35:30.581Z,62.26
2023-04-12T14:37:58.819Z,61.93
2023-04-12T14:40:26.894Z,61.91
2023-04-12T14:42:54.906Z,62.15
2023-04-12T14:45:28.322Z,61.66
2023-04-12T14:48:09.019Z,61.70
2023-04-12T14:50:50.874Z,61.53
2023-04-12T14:53:34.822Z,61.37
2023-04-12T14:56:31.184Z,61.60
2023-04-12T14:59:08.440Z,61.48
2023-04-12T15:01:51.366Z,61.32
2023-04-12T15:04:30.126Z,61.53
2023-04-12T15:07:07.306Z,61.54
2023-04-12T15:09:55.647Z,61.50
2023-04-12T15:12:40.823Z,61.81
2023-04-12T15:15:31.279Z,61.95
2023-04-12T15:18:10.834Z,61.92
2023-04-12T15:20:50.023Z,61.98
2023-04-12T15:23:25.192Z,61.99
2023-04-12T15:26:00.888Z,62.13
2023-04-12T15:28:41.329Z,62.44
2023-04-12T15:31:14.346Z,62.69
2023-04-12T15:33:46.070Z,62.63
2023-04-12T15:36:16.233Z,62.04
2023-04-12T15:38:44.540Z,61.93
2023-04-12T15:41:17.641Z,62.12
2023-04-12T15:43:53.562Z,62.10
2023-04-12T15:46:21.694Z,62.15
2023-04-12T15:49:38.368Z,62.18
2023-04-12T15:52:27.849Z,62.34
2023-04-12T15:55:15.790Z,62.75
2023-04-12T16:04:17.789Z,63.53
2023-04-12T16:06:45.957Z,63.61
2023-04-12T16:09:14.451Z,64.01
2023-04-12T16:11:43.568Z,64.13
2023-04-12T16:14:11.979Z,64.28
2023-04-12T16:16:43.310Z,64.50
2023-04-12T16:19:12.726Z,64.66
2023-04-12T16:21:46.477Z,64.94
2023-04-12T16:27:50.778Z,65.47
2023-04-12T16:30:37.635Z,65.61
2023-04-12T16:33:10.998Z,65.96
2023-04-12T16:35:40.394Z,66.20
2023-04-12T16:38:14.709Z,66.52
2023-04-12T16:40:47.228Z,66.80
2023-04-12T16:43:15.551Z,66.96
2023-04-12T16:45:46.010Z,67.01
2023-04-12T16:48:16.362Z,67.10
2023-04-12T16:50:49.440Z,67.23
2023-04-12T16:53:22.357Z,67.34
2023-04-12T16:55:57.913Z,67.49
2023-04-12T16:58:25.311Z,67.67
2023-04-12T17:01:04.003Z,67.76
2023-04-12T17:06:51.694Z,68.08
2023-04-12T17:09:25.828Z,68.10
2023-04-12T17:12:08.279Z,68.18
2023-04-12T17:14:48.152Z,68.10
2023-04-12T17:17:45.991Z,68.25
2023-04-12T17:20:16.349Z,69.45
2023-04-12T17:22:45.341Z,69.25
2023-04-12T17:25:13.655Z,69.38
2023-04-12T17:30:50.230Z,69.70
2023-04-12T17:33:24.654Z,69.91
2023-04-12T17:35:53.009Z,69.99
2023-04-12T17:38:47.078Z,70.21
2023-04-12T17:41:16.561Z,70.22
2023-04-12T17:43:46.981Z,70.32
2023-04-12T17:46:17.576Z,70.82
2023-04-12T17:48:50.605Z,70.45
2023-04-12T17:51:26.247Z,70.45
2023-04-12T17:53:54.762Z,70.69
2023-04-12T17:59:51.203Z,71.04
2023-04-12T18:08:44.637Z,71.67
2023-04-12T18:11:13.377Z,71.87
2023-04-12T18:13:41.539Z,72.26
2023-04-12T18:16:09.893Z,72.80
2023-04-12T18:18:38.041Z,73.16
2023-04-12T18:21:09.516Z,73.47
2023-04-12T18:23:39.638Z,73.58
2023-04-12T18:26:09.017Z,73.55
2023-04-12T18:28:39.719Z,73.75
2023-04-12T18:31:06.677Z,74.29
2023-04-12T18:33:36.211Z,74.55
2023-04-12T18:36:09.741Z,74.66
2023-04-12T18:38:41.613Z,74.68
2023-04-12T18:41:15.258Z,74.70
2023-04-12T18:43:44.149Z,74.69
2023-04-12T18:46:18.254Z,75.25
2023-04-12T18:51:32.487Z,75.09
2023-04-12T18:54:06.816Z,75.32
2023-04-12T18:56:35.363Z,75.46
2023-04-12T18:59:05.304Z,75.80
2023-04-12T19:01:38.801Z,75.98
2023-04-12T19:04:09.141Z,76.21
2023-04-12T19:06:37.779Z,76.43
2023-04-12T19:09:08.335Z,76.25
2023-04-12T19:11:38.157Z,76.70
2023-04-12T19:14:07.773Z,76.32
2023-04-12T19:16:36.240Z,76.35
2023-04-12T19:19:04.633Z,76.23
2023-04-12T19:21:33.704Z,76.30
2023-04-12T19:24:04.328Z,76.41
2023-04-12T19:26:34.167Z,76.37
2023-04-12T19:29:03.582Z,76.89
2023-04-12T19:31:35.400Z,76.89
2023-04-12T19:34:05.622Z,77.04
2023-04-12T19:36:43.339Z,77.34
2023-04-12T19:39:15.388Z,77.33
2023-04-12T19:41:44.657Z,77.16
2023-04-12T19:44:13.663Z,77.47
2023-04-12T19:46:41.999Z,77.26
2023-04-12T19:49:12.868Z,77.23
2023-04-12T19:51:40.807Z,77.16
2023-04-12T19:54:10.579Z,77.05
2023-04-12T19:56:39.038Z,77.81
2023-04-12T19:59:08.847Z,77.34
2023-04-12T20:01:48.830Z,77.22
2023-04-12T20:04:20.944Z,77.22
2023-04-12T20:06:53.185Z,77.19
2023-04-12T20:09:23.750Z,77.11
2023-04-12T20:11:56.215Z,77.30
2023-04-12T20:14:27.098Z,77.12
2023-04-12T20:16:56.397Z,77.08
2023-04-12T20:19:26.702Z,77.15
2023-04-12T20:21:59.546Z,77.01
2023-04-12T20:24:29.709Z,77.04
2023-04-12T20:26:57.886Z,77.02
2023-04-12T20:29:26.159Z,77.04
2023-04-12T20:31:55.568Z,77.32
2023-04-12T20:34:25.629Z,77.19
2023-04-12T20:36:54.970Z,77.63
2023-04-12T20:39:23.255Z,77.44
2023-04-12T20:41:53.350Z,77.74
2023-04-12T20:44:21.816Z,77.56
2023-04-12T20:46:50.508Z,77.54
2023-04-12T20:49:19.369Z,77.54
2023-04-12T20:51:48.384Z,77.53
2023-04-12T20:54:16.755Z,77.50
2023-04-12T20:56:44.585Z,77.46
2023-04-12T20:59:12.477Z,77.52
2023-04-12T21:01:42.351Z,77.53
2023-04-12T21:04:12.323Z,77.56
2023-04-12T21:06:40.223Z,77.75
2023-04-12T21:09:09.620Z,77.65
2023-04-12T21:11:37.456Z,77.65
2023-04-12T21:14:06.632Z,77.79
2023-04-12T21:16:39.585Z,77.74
2023-04-12T21:19:08.588Z,77.76
2023-04-12T21:21:36.680Z,77.76
2023-04-12T21:24:04.919Z,77.70
2023-04-12T21:26:33.253Z,77.66
2023-04-12T21:29:02.175Z,77.73
2023-04-12T21:31:33.507Z,77.74
2023-04-12T21:34:01.751Z,77.83
2023-04-12T21:36:30.075Z,77.82
2023-04-12T21:38:59.528Z,77.93
2023-04-12T21:41:29.375Z,77.91
2023-04-12T21:43:57.722Z,78.01
2023-04-12T21:46:26.753Z,78.02
2023-04-12T21:48:55.089Z,77.97
2023-04-12T21:51:24.248Z,77.95
2023-04-12T21:53:52.393Z,78.07
2023-04-12T21:56:20.180Z,78.02
2023-04-12T21:58:48.509Z,78.03
2023-04-12T22:01:16.482Z,78.11
2023-04-12T22:03:44.699Z,78.21
2023-04-12T22:06:12.695Z,78.29
2023-04-12T22:08:42.900Z,78.42
2023-04-12T22:11:11.617Z,78.37
2023-04-12T22:13:41.221Z,78.41
2023-04-12T22:16:13.540Z,78.31
2023-04-12T22:18:44.089Z,78.26
2023-04-12T22:21:13.016Z,78.10
2023-04-12T22:23:41.355Z,78.27
2023-04-12T22:26:11.245Z,78.21
2023-04-12T22:28:40.758Z,78.20
2023-04-12T22:31:13.788Z,78.25
2023-04-12T22:33:42.145Z,78.27
2023-04-12T22:36:10.286Z,78.25
2023-04-12T22:38:37.944Z,78.21
2023-04-12T22:41:07.132Z,78.16
2023-04-12T22:43:42.799Z,78.24
2023-04-12T22:46:18.102Z,78.18
2023-04-12T22:48:47.440Z,78.30
2023-04-12T22:51:15.627Z,78.29
2023-04-12T22:53:43.368Z,78.32
2023-04-12T22:56:11.390Z,78.24
2023-04-12T22:58:40.384Z,78.14
2023-04-12T23:01:10.344Z,78.26
2023-04-12T23:03:40.244Z,78.25
2023-04-12T23:06:08.155Z,78.32
2023-04-12T23:08:36.081Z,78.37
2023-04-12T23:11:04.378Z,78.35
2023-04-12T23:13:34.313Z,78.32
2023-04-12T23:16:03.123Z,78.48
2023-04-12T23:18:32.241Z,78.35
2023-04-12T23:21:01.084Z,78.46
2023-04-12T23:23:29.252Z,78.60
2023-04-12T23:25:57.278Z,78.55
2023-04-12T23:28:26.054Z,78.56
2023-04-12T23:30:53.988Z,78.53
2023-04-12T23:33:22.128Z,78.57
2023-04-12T23:35:53.072Z,78.60
2023-04-12T23:38:24.692Z,78.59
2023-04-12T23:40:55.465Z,78.63
2023-04-12T23:43:25.274Z,78.67
2023-04-12T23:45:53.235Z,78.62
2023-04-12T23:48:22.044Z,78.66
2023-04-12T23:50:50.736Z,78.74
2023-04-12T23:53:20.938Z,78.90
2023-04-12T23:55:51.643Z,79.10
2023-04-12T23:58:20.537Z,79.39
